Time;durP1;ratioP1;P1;durP2;ratioP2;P2;SDS_P1;SDS_P2;PMS_P1;PMS_P2;Temp;Humidity;BMP_temperature;BMP_pressure;BME280_temperature;BME280_humidity;BME280_pressure;Samples;Min_cycle;Max_cycle;Signal;HPM_P1;HPM_P2
2023/01/22 00:00:51;;;;;;;;;;;;;;;;;;;;;
2023/01/22 00:06:58;;;;;;;31.60;19.00;;;;;;;3.48;67.84;99633.83;234999;1199;138779;-66
2023/01/22 00:13:13;;;;;;;36.30;19.70;;;;;;;3.42;67.99;99635.40;234991;1195;139441;-63
2023/01/22 00:18:25;;;;;;;32.80;19.80;;;;;;;3.38;67.72;99644.08;234944;1199;139575;-67
2023/01/22 00:24:38;;;;;;;33.30;19.40;;;;;;;3.37;67.90;99646.20;234934;1195;138714;-66
2023/01/22 00:30:06;;;;;;;;;;;;;;;;;;;;;
2023/01/22 00:36:03;;;;;;;31.50;20.40;;;;;;;3.45;67.63;99654.60;234928;1195;139901;-68
2023/01/22 00:42:02;;;;;;;31.70;20.00;;;;;;;3.50;67.41;99656.77;234955;1195;138792;-67
2023/01/22 00:48:36;;;;;;;;;;;;;;;;;;;;;
2023/01/22 00:54:29;;;;;;;26.50;16.40;;;;;;;3.48;67.14;99647.00;234893;1195;139778;-64
2023/01/22 01:01:04;;;;;;;;;;;;;;;;;;;;;
2023/01/22 01:06:40;;;;;;;23.60;14.90;;;;;;;3.41;66.89;99651.56;235337;1192;139321;-63
2023/01/22 01:12:56;;;;;;;26.10;16.90;;;;;;;3.38;67.07;99642.85;235276;1195;139343;-65
2023/01/22 01:25:57;;;;;;;30.10;17.40;;;;;;;3.43;67.08;99649.58;231372;1208;649025;-63
2023/01/22 01:32:10;;;;;;;28.50;17.50;;;;;;;3.48;66.78;99652.96;234493;1199;139619;-64
2023/01/22 01:38:16;;;;;;;23.70;16.30;;;;;;;3.52;66.35;99661.12;234766;1195;139154;-64
2023/01/22 01:44:32;;;;;;;23.30;13.80;;;;;;;3.51;66.42;99669.39;234876;1195;138587;-63
2023/01/22 01:50:36;;;;;;;;;;;;;;;;;;;;;
2023/01/22 01:56:10;;;;;;;;;;;;;;;;;;;;;
2023/01/22 02:02:22;;;;;;;;;;;;;;;;;;;;;
2023/01/22 02:14:52;;;;;;;;;;;;;;;;;;;;;
2023/01/22 02:20:17;;;;;;;;;;;;;;;;;;;;;
2023/01/22 02:26:05;;;;;;;19.80;11.90;;;;;;;3.29;66.73;99702.68;234912;1196;138901;-63
2023/01/22 02:31:57;;;;;;;;;;;;;;;;;;;;;
2023/01/22 02:37:39;;;;;;;19.00;11.60;;;;;;;3.26;66.81;99691.16;234913;1196;139309;-64
2023/01/22 02:50:24;;;;;;;18.50;12.50;;;;;;;3.25;66.58;99686.79;234426;1196;139142;-65
2023/01/22 02:55:43;;;;;;;20.80;13.20;;;;;;;3.24;66.51;99688.77;234766;1196;138962;-63
2023/01/22 03:02:00;;;;;;;19.00;11.50;;;;;;;3.23;66.64;99685.80;234887;1199;139209;-63
2023/01/22 03:08:04;;;;;;;18.50;11.90;;;;;;;3.20;66.77;99685.16;234772;1196;138832;-63
2023/01/22 03:26:23;;;;;;;;;;;;;;;;;;;;;
2023/01/22 03:31:58;;;;;;;16.60;11.00;;;;;;;3.36;65.76;99708.83;232741;1196;139021;-61
2023/01/22 03:38:23;;;;;;;14.80;10.50;;;;;;;3.36;65.82;99709.72;234958;1197;139669;-65
2023/01/22 03:44:20;;;;;;;16.00;10.30;;;;;;;3.31;65.68;99712.96;234843;1195;138891;-63
2023/01/22 03:49:44;;;;;;;14.90;10.20;;;;;;;3.28;65.96;99711.11;234869;1197;139323;-63
2023/01/22 03:54:59;;;;;;;15.70;10.10;;;;;;;3.23;65.79;99711.57;234765;1196;138915;-62
2023/01/22 04:00:56;;;;;;;;;;;;;;;;;;;;;
2023/01/22 04:07:04;;;;;;;13.50;9.90;;;;;;;3.19;66.26;99712.70;234689;1196;139020;-62
2023/01/22 04:13:08;;;;;;;17.60;11.10;;;;;;;3.16;66.30;99713.11;234728;1196;138840;-64
2023/01/22 04:19:27;;;;;;;16.60;11.80;;;;;;;3.14;66.40;99719.30;234767;1197;139433;-63
2023/01/22 04:25:02;;;;;;;16.20;10.70;;;;;;;3.13;66.17;99721.45;234666;1196;138804;-64
2023/01/22 04:30:25;;;;;;;;;;;;;;;;;;;;;
2023/01/22 04:37:18;;;;;;;14.00;10.20;;;;;;;3.09;66.65;99715.02;234791;1196;138747;-64
2023/01/22 04:42:11;;;;;;;15.20;10.20;;;;;;;3.09;66.52;99715.54;234742;1196;138839;-65
2023/01/22 04:47:22;;;;;;;15.10;9.80;;;;;;;3.13;66.76;99717.76;234740;1196;139980;-66
2023/01/22 04:53:25;;;;;;;;;;;;;;;;;;;;;
2023/01/22 04:58:30;;;;;;;14.90;10.60;;;;;;;3.24;66.27;99716.80;234727;1196;140532;-64
2023/01/22 05:04:37;;;;;;;;;;;;;;;;;;;;;
2023/01/22 05:10:57;;;;;;;16.10;10.10;;;;;;;3.22;66.52;99721.05;234678;1196;139044;-65
2023/01/22 05:17:10;;;;;;;128.90;74.10;;;;;;;3.27;67.08;99726.04;234557;1199;140501;-64
2023/01/22 05:23:26;;;;;;;17.60;11.30;;;;;;;3.78;68.07;99724.36;232640;1200;141161;-66
2023/01/22 05:29:25;;;;;;;;;;;;;;;;;;;;;
2023/01/22 05:35:28;;;;;;;43.30;27.90;;;;;;;3.50;66.27;99729.05;234660;1196;140163;-66
2023/01/22 05:40:59;;;;;;;16.50;9.90;;;;;;;3.47;66.25;99749.27;234796;1196;138756;-66
2023/01/22 05:46:21;;;;;;;14.70;9.10;;;;;;;3.34;66.29;99749.03;234771;1196;138666;-65
2023/01/22 05:52:04;;;;;;;15.60;9.60;;;;;;;3.25;66.56;99767.82;234738;1196;139170;-67
2023/01/22 05:57:22;;;;;;;16.00;9.90;;;;;;;3.21;66.81;99782.27;232572;1199;139133;-65
2023/01/22 06:02:58;;;;;;;15.10;9.60;;;;;;;3.16;67.09;99778.52;234804;1196;139662;-64
2023/01/22 06:08:57;;;;;;;;;;;;;;;;;;;;;
2023/01/22 06:15:01;;;;;;;17.70;10.20;;;;;;;3.28;67.23;99782.49;234883;1196;139863;-64
2023/01/22 06:20:48;;;;;;;;;;;;;;;;;;;;;
2023/01/22 06:27:05;;;;;;;;;;;;;;;;;;;;;
2023/01/22 06:33:25;;;;;;;18.10;10.30;;;;;;;3.28;66.86;99770.73;234830;1196;139089;-65
2023/01/22 06:38:55;;;;;;;14.00;9.70;;;;;;;3.27;67.10;99775.65;234784;1196;139503;-65
2023/01/22 06:45:21;;;;;;;150.70;91.90;;;;;;;3.24;67.43;99783.80;233280;1196;138826;-63
2023/01/22 06:51:16;;;;;;;13.90;9.50;;;;;;;3.28;67.22;99796.50;234801;1195;139727;-65
2023/01/22 06:57:04;;;;;;;15.40;10.20;;;;;;;3.22;67.30;99797.52;234858;1196;139792;-66
2023/01/22 07:02:30;;;;;;;14.20;9.60;;;;;;;3.18;67.62;99807.40;234886;1195;139147;-65
2023/01/22 07:08:48;;;;;;;12.90;8.80;;;;;;;3.15;67.52;99800.79;234759;1196;140163;-66
2023/01/22 07:14:54;;;;;;;17.40;9.40;;;;;;;3.16;67.73;99803.23;234836;1196;138854;-66
2023/01/22 07:20:50;;;;;;;13.20;8.80;;;;;;;3.16;67.86;99821.29;234699;1196;141032;-69
2023/01/22 07:26:54;;;;;;;;;;;;;;;;;;;;;
2023/01/22 07:33:00;;;;;;;12.60;8.30;;;;;;;3.19;67.79;99841.75;234970;1195;139731;-67
2023/01/22 07:39:10;;;;;;;12.30;8.50;;;;;;;3.23;67.78;99845.55;234813;1196;140056;-68
2023/01/22 07:45:24;;;;;;;;;;;;;;;;;;;;;
2023/01/22 07:51:47;;;;;;;;;;;;;;;;;;;;;
2023/01/22 08:02:10;;;;;;;12.40;9.20;;;;;;;3.40;67.57;99841.34;232892;1209;641016;-66
2023/01/22 08:08:27;;;;;;;14.40;9.00;;;;;;;3.37;67.64;99832.29;234753;1196;138370;-66
2023/01/22 08:14:31;;;;;;;80.10;50.30;;;;;;;3.33;68.63;99838.67;234626;1196;137985;-65
2023/01/22 08:20:45;;;;;;;17.00;11.10;;;;;;;3.50;69.09;99839.92;235234;1192;138555;-67
2023/01/22 08:26:11;;;;;;;12.40;9.00;;;;;;;3.45;67.86;99845.46;235371;1192;138716;-68
2023/01/22 08:32:00;;;;;;;13.70;9.70;;;;;;;3.39;67.97;99850.31;235352;1192;138938;-68
2023/01/22 08:37:51;;;;;;;14.10;10.10;;;;;;;3.34;67.94;99850.77;235489;1192;139875;-67
2023/01/22 08:43:46;;;;;;;76.50;50.10;;;;;;;3.40;69.24;99858.71;235564;1192;139324;-73
2023/01/22 08:50:28;;;;;;;13.40;9.30;;;;;;;3.61;68.15;99860.57;235471;1192;139312;-63
2023/01/22 09:03:15;;;;;;;;;;;;;;;;;;;;;
2023/01/22 09:15:36;;;;;;;;;;;;;;;;;;;;;
2023/01/22 09:28:07;;;;;;;;;;;;;;;;;;;;;
2023/01/22 09:34:16;;;;;;;16.50;10.90;;;;;;;3.72;67.50;99870.17;235280;1193;138789;-63
2023/01/22 09:40:02;;;;;;;15.40;11.00;;;;;;;3.73;67.64;99866.27;235381;1196;138601;-63
2023/01/22 09:45:45;;;;;;;208.50;134.50;;;;;;;3.73;68.24;99863.47;235358;1193;141444;-64
2023/01/22 09:51:30;;;;;;;17.50;11.70;;;;;;;3.81;68.25;99867.00;235198;1193;139869;-68
2023/01/22 10:03:17;;;;;;;;;;;;;;;;;;;;;
2023/01/22 10:08:57;;;;;;;17.50;11.40;;;;;;;4.00;67.50;99854.81;234444;1198;138969;-68
2023/01/22 10:15:02;;;;;;;15.40;10.80;;;;;;;4.00;67.64;99862.36;234393;1198;138777;-68
2023/01/22 10:21:26;;;;;;;16.60;10.90;;;;;;;4.00;67.63;99858.67;235247;1192;139084;-67
2023/01/22 10:27:35;;;;;;;18.00;12.40;;;;;;;3.99;67.33;99858.15;235299;1192;138542;-68
2023/01/22 10:32:51;;;;;;;;;;;;;;;;;;;;;
2023/01/22 10:39:06;;;;;;;19.60;12.90;;;;;;;3.96;67.80;99861.91;235301;1193;138772;-67
2023/01/22 10:45:56;;;;;;;;;;;;;;;;;;;;;
2023/01/22 10:52:14;;;;;;;19.60;13.80;;;;;;;4.02;68.29;99867.05;235241;1192;139434;-64
2023/01/22 10:59:48;;;;;;;17.40;11.70;;;;;;;3.95;68.14;99867.57;235491;1193;139559;-63
2023/01/22 11:05:08;;;;;;;;;;;;;;;;;;;;;
2023/01/22 11:11:44;;;;;;;20.00;12.90;;;;;;;4.21;68.19;99867.69;235342;1195;139458;-62
2023/01/22 11:17:36;;;;;;;21.60;13.70;;;;;;;4.25;67.73;99860.58;234881;1193;139439;-65
2023/01/22 11:23:17;;;;;;;20.20;13.80;;;;;;;4.24;68.20;99861.11;235234;1192;138928;-64
2023/01/22 11:29:16;;;;;;;;;;;;;;;;;;;;;
2023/01/22 11:48:48;;;;;;;;;;;;;;;;;;;;;
2023/01/22 11:54:35;;;;;;;;;;;;;;;;;;;;;
2023/01/22 12:00:42;;;;;;;201.20;122.60;;;;;;;4.19;69.78;99862.48;234472;1196;139590;-69
2023/01/22 12:06:58;;;;;;;;;;;;;;;;;;;;;
2023/01/22 13:26:32;;;;;;;31.00;18.80;;;;;;;5.15;73.37;99917.25;232658;1209;635678;-69
2023/01/22 13:32:57;;;;;;;30.80;18.70;;;;;;;5.03;69.34;99928.13;233522;1199;139086;-69
2023/01/22 13:38:52;;;;;;;32.30;19.60;;;;;;;4.79;69.44;99931.86;234087;1199;138694;-70
2023/01/22 13:51:20;;;;;;;32.40;19.40;;;;;;;4.56;70.03;99936.13;232800;1193;138693;-68
2023/01/22 13:56:37;;;;;;;32.40;19.90;;;;;;;4.46;70.13;99931.75;233425;1195;138357;-66
2023/01/22 14:03:04;;;;;;;134.30;82.70;;;;;;;4.41;70.99;99931.87;234654;1197;139772;-66
2023/01/22 14:08:13;;;;;;;35.30;21.90;;;;;;;4.42;70.34;99942.90;234029;1198;139503;-66
2023/01/22 14:14:04;;;;;;;35.40;20.40;;;;;;;4.42;70.59;99941.35;234732;1193;140032;-66
2023/01/22 14:19:54;;;;;;;;;;;;;;;;;;;;;
2023/01/22 14:25:38;;;;;;;;;;;;;;;;;;;;;
2023/01/22 14:30:48;;;;;;;34.20;21.20;;;;;;;4.51;70.38;99970.65;234703;1193;139448;-66
2023/01/22 14:37:03;;;;;;;146.20;94.00;;;;;;;4.51;70.67;99971.70;234652;1193;140953;-68
2023/01/22 14:42:54;;;;;;;;;;;;;;;;;;;;;
2023/01/22 14:49:01;;;;;;;33.10;20.50;;;;;;;4.63;70.29;99997.45;234758;1196;139280;-69
2023/01/22 14:54:31;;;;;;;;;;;;;;;;;;;;;
2023/01/22 15:00:59;;;;;;;36.70;21.50;;;;;;;4.41;70.63;99992.84;234759;1195;138919;-69
2023/01/22 15:06:18;;;;;;;35.00;20.90;;;;;;;4.38;70.76;100005.90;234638;1193;140816;-69
2023/01/22 15:11:50;;;;;;;45.50;25.80;;;;;;;4.42;72.10;100002.83;234476;1194;141085;-67
2023/01/22 15:17:20;;;;;;;40.20;22.40;;;;;;;4.47;71.24;100007.45;234529;1195;139237;-67
2023/01/22 15:22:59;;;;;;;;;;;;;;;;;;;;;
2023/01/22 15:29:04;;;;;;;;;;;;;;;;;;;;;
2023/01/22 15:34:23;;;;;;;41.60;23.40;;;;;;;4.36;70.97;100032.84;234620;1195;140059;-67
2023/01/22 15:40:19;;;;;;;39.10;22.60;;;;;;;4.28;71.56;100035.10;234478;1196;140895;-68
2023/01/22 15:45:53;;;;;;;45.20;24.10;;;;;;;4.23;71.86;100041.87;234484;1195;139937;-68
2023/01/22 15:51:18;;;;;;;42.10;23.30;;;;;;;4.21;72.03;100043.66;234594;1194;139774;-67
2023/01/22 15:56:31;;;;;;;57.30;30.90;;;;;;;4.22;72.13;100060.87;234436;1195;140556;-66
2023/01/22 16:02:01;;;;;;;46.90;24.30;;;;;;;4.27;72.15;100070.43;234364;1195;141982;-66
2023/01/22 16:07:08;;;;;;;49.00;25.80;;;;;;;4.34;72.05;100077.32;234533;1196;140176;-65
2023/01/22 16:12:18;;;;;;;215.90;123.60;;;;;;;4.47;72.92;100078.12;234477;1196;140304;-66
2023/01/22 16:17:47;;;;;;;50.10;26.10;;;;;;;4.66;72.34;100076.64;234403;1198;140461;-67
2023/01/22 16:23:34;;;;;;;48.50;25.60;;;;;;;4.55;71.77;100075.66;234678;1196;140042;-66
2023/01/22 16:29:39;;;;;;;45.70;25.60;;;;;;;4.46;71.73;100079.70;234434;1198;139994;-66
2023/01/22 16:36:32;;;;;;;;;;;;;;;;;;;;;
2023/01/22 16:42:20;;;;;;;57.20;25.50;;;;;;;4.30;72.20;100087.93;233856;1198;140062;-65
2023/01/22 16:48:46;;;;;;;;;;;;;;;;;;;;;
2023/01/22 16:55:29;;;;;;;47.70;24.80;;;;;;;4.27;72.54;100101.52;234222;1196;140644;-65
2023/01/22 17:01:00;;;;;;;42.50;24.30;;;;;;;4.32;72.19;100110.37;234424;1198;141232;-64
2023/01/22 17:07:13;;;;;;;;;;;;;;;;;;;;;
2023/01/22 17:13:10;;;;;;;119.40;73.70;;;;;;;4.41;72.81;100123.71;234169;1198;140012;-65
2023/01/22 17:19:24;;;;;;;54.50;30.90;;;;;;;4.57;73.73;100128.17;234563;1198;140357;-68
2023/01/22 17:24:59;;;;;;;44.10;24.20;;;;;;;4.61;71.81;100135.83;234445;1195;139574;-68
2023/01/22 17:30:44;;;;;;;42.60;24.20;;;;;;;4.49;71.84;100150.65;234367;1198;141404;-67
2023/01/22 17:36:30;;;;;;;;;;;;;;;;;;;;;
2023/01/22 17:43:02;;;;;;;37.70;22.00;;;;;;;4.39;72.38;100175.06;234450;1195;138971;-68
2023/01/22 17:48:24;;;;;;;33.30;20.00;;;;;;;4.39;72.41;100181.92;234468;1195;140719;-67
2023/01/22 17:54:19;;;;;;;37.00;20.80;;;;;;;4.46;72.40;100184.42;234302;1195;139954;-66
2023/01/22 18:04:21;;;;;;;32.60;19.00;;;;;;;4.56;71.99;100193.91;232262;1212;636928;-64
2023/01/22 18:09:50;;;;;;;31.10;18.80;;;;;;;4.50;72.18;100199.64;234347;1196;138472;-66
2023/01/22 18:15:40;;;;;;;;;;;;;;;;;;;;;
2023/01/22 18:28:21;;;;;;;;;;;;;;;;;;;;;
2023/01/22 18:34:19;;;;;;;;;;;;;;;4.37;72.33;100224.99;234892;1193;139139;-68
2023/01/22 18:40:26;;;;;;;33.40;18.70;;;;;;;4.36;72.56;100233.10;234857;1193;126200;-67
2023/01/22 18:46:46;;;;;;;30.00;17.60;;;;;;;4.40;72.38;100238.13;234871;1194;139555;-67
2023/01/22 18:52:28;;;;;;;;;;;;;;;;;;;;;
2023/01/22 18:58:29;;;;;;;30.60;17.60;;;;;;;4.40;72.44;100242.17;234878;1193;139943;-67
2023/01/22 19:04:34;;;;;;;32.70;18.70;;;;;;;4.38;72.29;100234.83;234800;1195;139128;-67
2023/01/22 19:10:26;;;;;;;;;;;;;;;;;;;;;
2023/01/22 19:16:35;;;;;;;31.00;18.10;;;;;;;4.33;72.73;100235.42;234706;1193;139075;-68
2023/01/22 19:22:52;;;;;;;35.90;19.50;;;;;;;4.29;72.59;100239.91;234763;1193;140180;-68
2023/01/22 19:29:44;;;;;;;121.40;71.30;;;;;;;4.29;73.01;100250.25;234700;1193;140034;-66
2023/01/22 19:36:14;;;;;;;;;;;;;;;;;;;;;
2023/01/22 19:42:23;;;;;;;33.60;18.60;;;;;;;4.58;72.22;100256.77;234435;1193;140051;-65
2023/01/22 19:48:11;;;;;;;;;;;;;;;;;;;;;
2023/01/22 19:54:08;;;;;;;;;;;;;;;;;;;;;
2023/01/22 19:59:53;;;;;;;;;;;;;;;;;;;;;
2023/01/22 20:06:10;;;;;;;37.60;23.00;;;;;;;4.67;72.35;100271.39;234733;1193;139695;-64
2023/01/22 20:19:12;;;;;;;28.90;16.80;;;;;;;4.51;71.79;100290.65;234407;1193;140271;-65
2023/01/22 20:26:16;;;;;;;28.80;16.30;;;;;;;4.46;71.89;100294.59;234561;1194;139647;-65
2023/01/22 20:31:53;;;;;;;24.50;15.90;;;;;;;4.41;72.04;100295.73;234257;1196;140292;-63
2023/01/22 20:37:44;;;;;;;;;;;;;;;;;;;;;
2023/01/22 20:43:43;;;;;;;25.80;15.40;;;;;;;4.45;72.06;100321.50;234937;1193;140017;-64
2023/01/22 20:50:48;;;;;;;;;;;;;;;;;;;;;
2023/01/22 21:02:09;;;;;;;31.80;18.30;;;;;;;4.47;72.15;100310.92;231496;1212;638858;-65
2023/01/22 21:08:00;;;;;;;35.60;19.30;;;;;;;4.45;71.83;100307.44;234738;1196;139380;-66
2023/01/22 21:13:47;;;;;;;;;;;;;;;;;;;;;
2023/01/22 21:19:59;;;;;;;35.60;19.90;;;;;;;4.38;72.06;100332.33;234780;1196;139301;-65
2023/01/22 21:25:33;;;;;;;;;;;;;;;;;;;;;
2023/01/22 21:31:33;;;;;;;37.80;21.60;;;;;;;4.32;72.02;100323.64;234853;1193;139550;-68
2023/01/22 21:37:15;;;;;;;42.10;22.90;;;;;;;4.37;72.24;100333.57;234834;1193;138988;-69
2023/01/22 21:48:26;;;;;;;34.20;21.50;;;;;;;4.41;71.81;100349.85;234837;1192;138725;-68
2023/01/22 21:53:40;;;;;;;;;;;;;;;;;;;;;
2023/01/22 22:03:21;;;;;;;39.10;22.20;;;;;;;4.35;72.22;100366.28;232263;1212;646862;-68
2023/01/22 22:09:10;;;;;;;39.50;22.40;;;;;;;4.31;72.43;100364.77;234143;1198;138902;-68
2023/01/22 22:14:42;;;;;;;;;;;;;;;;;;;;;
2023/01/22 22:19:48;;;;;;;40.80;22.00;;;;;;;4.28;72.36;100371.84;234180;1199;125382;-69
2023/01/22 22:25:12;;;;;;;37.80;22.30;;;;;;;4.34;72.30;100376.85;234259;1199;139365;-69
2023/01/22 22:30:35;;;;;;;39.70;22.40;;;;;;;4.40;72.38;100376.05;235111;1192;139269;-68
2023/01/22 22:35:54;;;;;;;41.30;23.10;;;;;;;4.43;72.06;100375.13;235076;1193;138618;-69
2023/01/22 22:41:31;;;;;;;38.50;22.40;;;;;;;4.41;72.28;100381.30;235058;1193;139573;-69
2023/01/22 22:46:38;;;;;;;37.40;20.60;;;;;;;4.37;72.14;100380.48;235080;1192;139333;-69
2023/01/22 22:52:16;;;;;;;;;;;;;;;;;;;;;
2023/01/22 23:03:30;;;;;;;;;;;;;;;;;;;;;
2023/01/22 23:09:10;;;;;;;;;;;;;;;;;;;;;
2023/01/22 23:15:15;;;;;;;;;;;;;;;;;;;;;
2023/01/22 23:21:40;;;;;;;;;;;;;;;;;;;;;
2023/01/22 23:40:42;;;;;;;;;;;;;;;;;;;;;
2023/01/22 23:46:40;;;;;;;47.30;24.90;;;;;;;4.27;72.47;100437.20;233614;1201;139599;-66
2023/01/22 23:53:07;;;;;;;42.60;23.30;;;;;;;4.24;72.55;100434.80;233548;1201;139363;-66
